Time;durP1;ratioP1;P1;durP2;ratioP2;P2;SDS_P1;SDS_P2;PMS_P1;PMS_P2;Temp;Humidity;BMP_temperature;BMP_pressure;BME280_temperature;BME280_humidity;BME280_pressure;Samples;Min_cycle;Max_cycle;Signal;HPM_P1;HPM_P2
2022/01/17 00:00:46;;;;;;;;;31.80;29.60;;;;;9.31;68.56;102872.38;2092209;28;47298;-70
2022/01/17 00:01:47;;;;;;;;;30.25;27.75;;;;;9.31;68.35;102865.34;2092395;28;47356;-71
2022/01/17 00:02:50;;;;;;;;;25.00;25.00;;;;;9.32;68.44;102869.75;2092291;28;47125;-72
2022/01/17 00:03:51;;;;;;;;;27.60;26.80;;;;;9.32;68.39;102871.53;2095110;28;48115;-70
2022/01/17 00:04:51;;;;;;;;;29.00;28.00;;;;;9.33;68.43;102878.59;2096303;28;47424;-67
2022/01/17 00:05:52;;;;;;;;;24.75;24.25;;;;;9.32;68.58;102880.38;2094179;28;47296;-70
2022/01/17 00:06:53;;;;;;;;;28.20;25.40;;;;;9.33;68.54;102881.25;2090963;28;47036;-70
2022/01/17 00:07:53;;;;;;;;;27.75;27.00;;;;;9.34;68.55;102880.38;2089773;28;47586;-69
2022/01/17 00:08:54;;;;;;;;;29.75;27.75;;;;;9.34;68.59;102877.75;2095487;28;47351;-68
2022/01/17 00:09:54;;;;;;;;;27.50;26.25;;;;;9.34;68.38;102881.28;2094415;28;46452;-71
2022/01/17 00:10:54;;;;;;;;;36.00;32.75;;;;;9.34;68.42;102877.75;2091718;28;46905;-70
2022/01/17 00:11:56;;;;;;;;;34.25;33.00;;;;;9.35;68.57;102876.88;2095012;28;46982;-66
2022/01/17 00:12:58;;;;;;;;;31.80;30.60;;;;;9.34;68.54;102878.63;2090340;28;47931;-69
2022/01/17 00:13:59;;;;;;;;;30.60;26.20;;;;;9.34;68.41;102880.38;2093657;28;47865;-69
2022/01/17 00:14:59;;;;;;;;;32.75;30.00;;;;;9.34;68.68;102877.75;2095538;28;47133;-72
2022/01/17 00:16:13;;;;;;;;;34.00;29.75;;;;;9.33;68.48;102876.84;2094544;28;47992;-70
2022/01/17 00:20:25;;;;;;;;;36.40;30.20;;;;;9.33;68.72;102876.84;2091007;28;47953;-69
2022/01/17 00:21:26;;;;;;;;;30.20;30.20;;;;;9.33;68.57;102881.25;2095145;28;47308;-70
2022/01/17 00:22:26;;;;;;;;;28.25;28.25;;;;;9.34;68.65;102880.38;2094380;28;47656;-70
2022/01/17 00:23:26;;;;;;;;;31.00;27.25;;;;;9.34;68.62;102877.75;2093145;28;47449;-70
2022/01/17 00:24:27;;;;;;;;;33.00;31.50;;;;;9.34;68.75;102875.97;2094891;28;46460;-69
2022/01/17 00:25:27;;;;;;;;;35.75;32.50;;;;;9.34;68.80;102872.44;2094538;28;47240;-69
2022/01/17 00:26:28;;;;;;;;;33.50;30.50;;;;;9.34;68.59;102869.78;2094588;28;47366;-72
2022/01/17 00:27:28;;;;;;;;;35.25;31.75;;;;;9.35;68.59;102875.13;2100908;28;47029;-70
2022/01/17 00:28:29;;;;;;;;;29.50;29.50;;;;;9.34;68.70;102867.13;2091171;28;47317;-69
2022/01/17 00:29:29;;;;;;;;;29.00;28.00;;;;;9.34;68.55;102867.13;2087936;28;47690;-68
2022/01/17 00:30:30;;;;;;;;;36.00;32.00;;;;;9.34;68.36;102869.78;2087868;28;47796;-69
2022/01/17 00:31:31;;;;;;;;;29.25;27.75;;;;;9.34;68.63;102875.97;2094186;28;46676;-68
2022/01/17 00:32:31;;;;;;;;;34.00;32.00;;;;;9.34;68.54;102870.69;2096186;28;47459;-70
2022/01/17 00:33:33;;;;;;;;;32.25;31.00;;;;;9.34;68.73;102873.34;2096227;28;45162;-69
2022/01/17 00:34:33;;;;;;;;;38.40;31.80;;;;;9.35;68.62;102876.88;2096176;28;47583;-68
2022/01/17 00:35:34;;;;;;;;;28.75;26.75;;;;;9.33;68.64;102866.25;2096529;28;45085;-68
2022/01/17 00:36:34;;;;;;;;;34.75;32.50;;;;;9.34;68.66;102870.69;2096056;28;48195;-69
2022/01/17 00:37:34;;;;;;;;;33.75;31.50;;;;;9.35;68.45;102868.91;2096287;28;47507;-69
2022/01/17 00:38:35;;;;;;;;;31.00;29.50;;;;;9.35;68.51;102867.16;2096169;28;47204;-68
2022/01/17 00:39:35;;;;;;;;;30.75;26.50;;;;;9.35;68.72;102874.22;2090929;28;47611;-70
2022/01/17 00:40:36;;;;;;;;;36.00;30.25;;;;;9.35;68.62;102868.91;2094670;28;47321;-70
2022/01/17 00:41:36;;;;;;;;;32.00;31.25;;;;;9.35;68.68;102879.53;2095431;28;47550;-68
2022/01/17 00:42:37;;;;;;;;;33.25;29.75;;;;;9.34;68.70;102868.03;2096125;28;47703;-69
2022/01/17 00:43:37;;;;;;;;;33.75;31.50;;;;;9.35;68.63;102874.22;2096121;28;47333;-71
2022/01/17 00:44:37;;;;;;;;;31.75;30.00;;;;;9.34;68.70;102869.78;2095797;28;46078;-71
2022/01/17 00:45:41;;;;;;;;;27.50;27.50;;;;;9.34;68.87;102875.97;2092864;28;45242;-68
2022/01/17 00:46:41;;;;;;;;;27.80;27.80;;;;;9.35;68.57;102875.13;2093725;28;47406;-71
2022/01/17 00:47:42;;;;;;;;;26.75;26.75;;;;;9.35;68.85;102874.22;2096429;28;47417;-71
2022/01/17 00:48:42;;;;;;;;;34.75;31.75;;;;;9.34;68.78;102875.97;2088589;28;47257;-71
2022/01/17 00:49:43;;;;;;;;;36.50;33.75;;;;;9.34;68.87;102870.69;2087816;28;47667;-68
2022/01/17 00:50:44;;;;;;;;;32.25;29.00;;;;;9.35;68.81;102871.56;2079016;28;47168;-70
2022/01/17 00:51:46;;;;;;;;;33.40;31.80;;;;;9.36;68.70;102868.06;2084923;28;47738;-71
2022/01/17 00:52:46;;;;;;;;;34.80;32.40;;;;;9.37;68.93;102869.84;2096214;28;47886;-70
2022/01/17 00:53:47;;;;;;;;;36.00;33.25;;;;;9.37;68.78;102864.53;2087244;28;47551;-70
2022/01/17 00:54:47;;;;;;;;;34.00;29.50;;;;;9.38;68.79;102866.31;2087342;28;45351;-70
2022/01/17 00:55:48;;;;;;;;;32.75;26.75;;;;;9.38;68.57;102868.97;2096234;28;47836;-69
2022/01/17 00:56:48;;;;;;;;;32.50;31.00;;;;;9.39;68.80;102874.28;2090216;28;47482;-70
2022/01/17 00:57:48;;;;;;;;;39.50;33.00;;;;;9.39;68.74;102870.75;2089015;28;47133;-72
2022/01/17 00:58:50;;;;;;;;;31.00;27.50;;;;;9.41;68.83;102871.69;2091478;28;47646;-70
2022/01/17 00:59:51;;;;;;;;;31.00;29.80;;;;;9.40;68.72;102868.16;2092449;28;47291;-70
2022/01/17 01:00:51;;;;;;;;;36.00;33.00;;;;;9.41;68.80;102871.69;2095953;28;47355;-69
2022/01/17 01:01:51;;;;;;;;;30.25;28.75;;;;;9.41;68.78;102866.41;2094457;28;47531;-67
2022/01/17 01:02:52;;;;;;;;;35.00;32.75;;;;;9.42;68.75;102870.81;2095344;28;47548;-68
2022/01/17 01:03:53;;;;;;;;;35.20;33.00;;;;;9.41;68.67;102864.63;2094136;28;47457;-68
2022/01/17 01:04:53;;;;;;;;;34.50;32.75;;;;;9.42;68.82;102865.53;2095093;28;47608;-68
2022/01/17 01:05:54;;;;;;;;;30.00;27.00;;;;;9.41;68.65;102863.75;2094143;28;45690;-68
2022/01/17 01:06:54;;;;;;;;;34.00;32.00;;;;;9.41;68.83;102863.75;2095062;28;45296;-71
2022/01/17 01:07:55;;;;;;;;;37.25;31.00;;;;;9.42;68.71;102870.81;2093926;28;47082;-70
2022/01/17 01:08:57;;;;;;;;;33.25;32.25;;;;;9.41;68.98;102869.03;2095134;28;47388;-69
2022/01/17 01:11:04;;;;;;;;;33.20;31.80;;;;;9.41;68.85;102869.94;2095190;28;47200;-72
2022/01/17 01:12:05;;;;;;;;;36.80;32.80;;;;;9.41;68.55;102874.34;2085917;28;45574;-67
2022/01/17 01:13:06;;;;;;;;;35.75;32.50;;;;;9.41;68.80;102869.03;2086824;28;47519;-69
2022/01/17 01:14:06;;;;;;;;;36.50;33.00;;;;;9.41;68.75;102863.75;2090888;28;47394;-70
2022/01/17 01:15:14;;;;;;;;;33.75;32.25;;;;;9.41;69.02;102863.75;2095593;28;47377;-67
2022/01/17 01:17:31;;;;;;;;;33.00;29.25;;;;;9.41;68.98;102869.94;2096082;28;47984;-70
2022/01/17 01:19:41;;;;;;;;;32.80;30.20;;;;;9.43;68.96;102867.31;2090692;28;47168;-68
2022/01/17 01:21:47;;;;;;;;;31.00;29.00;;;;;9.43;68.94;102867.31;2093655;28;47967;-69
2022/01/17 01:28:12;;;;;;;;;28.40;25.80;;;;;9.43;69.00;102862.00;2092553;28;47810;-68
2022/01/17 01:29:13;;;;;;;;;38.75;32.75;;;;;9.43;68.89;102864.66;2095500;28;47287;-64
2022/01/17 01:30:16;;;;;;;;;35.00;30.50;;;;;9.44;68.76;102869.97;2094723;28;46028;-69
2022/01/17 01:31:27;;;;;;;;;41.00;32.40;;;;;9.44;68.96;102864.69;2095073;28;47648;-70
2022/01/17 01:32:37;;;;;;;;;34.80;31.00;;;;;9.45;68.70;102865.56;2093958;28;45260;-69
2022/01/17 01:33:40;;;;;;;;;34.00;31.80;;;;;9.46;68.92;102859.41;2094510;28;47665;-71
2022/01/17 01:34:46;;;;;;;;;32.60;29.80;;;;;9.46;68.98;102864.69;2091987;28;47382;-70
2022/01/17 01:35:47;;;;;;;;;36.40;33.40;;;;;9.46;68.74;102864.69;2091426;28;47721;-71
2022/01/17 01:36:49;;;;;;;;;31.00;30.20;;;;;9.45;69.04;102862.91;2095671;28;47161;-69
2022/01/17 01:37:50;;;;;;;;;33.00;29.40;;;;;9.46;68.65;102856.75;2093675;28;45650;-70
2022/01/17 01:38:50;;;;;;;;;37.40;32.00;;;;;9.46;68.93;102866.47;2091054;28;47684;-70
2022/01/17 01:39:52;;;;;;;;;42.25;35.00;;;;;9.46;69.00;102856.75;2092026;28;47102;-70
2022/01/17 01:40:53;;;;;;;;;31.40;29.00;;;;;9.45;68.70;102865.56;2095620;28;47713;-68
2022/01/17 01:41:53;;;;;;;;;31.50;29.50;;;;;9.47;68.89;102865.59;2094733;28;47438;-71
2022/01/17 01:42:55;;;;;;;;;32.25;31.00;;;;;9.47;68.84;102861.19;2095796;28;47762;-69
2022/01/17 01:43:55;;;;;;;;;35.40;30.40;;;;;9.48;68.97;102870.91;2094897;28;47001;-69
2022/01/17 01:44:56;;;;;;;;;38.75;34.25;;;;;9.49;68.82;102871.81;2094591;28;47194;-70
2022/01/17 01:46:01;;;;;;;;;34.00;29.50;;;;;9.49;69.16;102869.16;2092827;28;47618;-70
2022/01/17 01:47:02;;;;;;;;;31.00;30.60;;;;;9.50;68.78;102874.47;2094575;28;47471;-70
2022/01/17 01:48:02;;;;;;;;;34.00;32.75;;;;;9.51;68.77;102873.63;2094417;28;47157;-68
2022/01/17 01:49:03;;;;;;;;;35.25;31.75;;;;;9.51;68.79;102868.31;2089547;28;47532;-71
2022/01/17 01:50:05;;;;;;;;;36.50;32.25;;;;;9.52;69.07;102879.81;2094035;28;47455;-71
2022/01/17 01:51:05;;;;;;;;;33.60;32.20;;;;;9.52;68.86;102872.75;2092708;28;47885;-68
2022/01/17 01:52:06;;;;;;;;;34.75;31.75;;;;;9.52;68.90;102880.69;2094380;28;47745;-70
2022/01/17 01:53:06;;;;;;;;;28.50;25.50;;;;;9.52;68.76;102871.84;2094572;28;47021;-68
2022/01/17 01:54:08;;;;;;;;;31.00;29.00;;;;;9.53;68.80;102868.34;2093833;28;47903;-71
2022/01/17 01:55:11;;;;;;;;;37.00;32.00;;;;;9.54;68.98;102884.28;2094684;28;47774;-69
2022/01/17 01:56:11;;;;;;;;;36.60;34.20;;;;;9.54;68.66;102876.34;2094425;28;48028;-71
2022/01/17 01:57:12;;;;;;;;;33.25;28.00;;;;;9.54;68.88;102886.06;2095719;28;45992;-69
2022/01/17 01:58:13;;;;;;;;;34.00;32.25;;;;;9.54;68.72;102875.44;2094634;28;47841;-70
2022/01/17 01:59:16;;;;;;;;;30.25;27.50;;;;;9.54;69.09;102884.28;2095488;28;47193;-70
2022/01/17 02:00:17;;;;;;;;;32.20;31.40;;;;;9.55;68.65;102886.06;2093268;28;47790;-69
2022/01/17 02:01:18;;;;;;;;;33.00;28.00;;;;;9.54;69.10;102886.94;2092103;28;47474;-70
2022/01/17 02:02:18;;;;;;;;;29.25;28.75;;;;;9.55;68.85;102886.06;2094376;28;47026;-70
2022/01/17 02:03:19;;;;;;;;;33.50;31.50;;;;;9.55;69.04;102890.50;2095823;28;47066;-69
2022/01/17 02:04:19;;;;;;;;;32.50;28.50;;;;;9.57;68.99;102891.41;2093266;28;47097;-69
2022/01/17 02:05:20;;;;;;;;;32.75;32.25;;;;;9.57;69.00;102888.75;2095959;28;47606;-70
2022/01/17 02:06:20;;;;;;;;;32.25;32.25;;;;;9.57;68.96;102889.63;2093946;28;47745;-67
2022/01/17 02:07:22;;;;;;;;;34.75;31.50;;;;;9.57;68.90;102884.34;2093563;28;47312;-70
2022/01/17 02:08:22;;;;;;;;;35.20;29.20;;;;;9.58;68.82;102894.06;2083460;28;47310;-68
2022/01/17 02:09:23;;;;;;;;;31.75;31.00;;;;;9.57;68.76;102892.28;2083519;28;47672;-71
2022/01/17 02:10:24;;;;;;;;;38.60;34.20;;;;;9.58;68.83;102895.84;2093558;28;47166;-67
2022/01/17 02:11:24;;;;;;;;;36.25;33.25;;;;;9.57;68.77;102889.63;2095956;28;47369;-70
2022/01/17 02:12:29;;;;;;;;;30.25;29.25;;;;;9.58;69.06;102891.41;2092368;28;47392;-71
2022/01/17 02:13:29;;;;;;;;;37.40;34.40;;;;;9.59;69.08;102887.91;2096103;28;47638;-70
2022/01/17 02:14:30;;;;;;;;;26.25;26.25;;;;;9.58;69.04;102886.13;2090954;28;47858;-69
2022/01/17 02:15:30;;;;;;;;;34.50;29.00;;;;;9.60;68.92;102886.16;2088662;28;47648;-68
2022/01/17 02:16:31;;;;;;;;;37.25;34.50;;;;;9.59;68.95;102885.25;2095072;28;47544;-69
2022/01/17 02:17:34;;;;;;;;;36.60;32.80;;;;;9.60;68.95;102891.44;2094766;28;46993;-69
2022/01/17 02:18:35;;;;;;;;;32.20;31.60;;;;;9.59;69.11;102890.56;2093519;28;47247;-69
2022/01/17 02:19:44;;;;;;;;;36.50;32.00;;;;;9.61;68.91;102886.16;2091734;28;47159;-70
2022/01/17 02:20:59;;;;;;;;;34.40;31.80;;;;;9.60;68.86;102888.78;2093241;28;47809;-70
2022/01/17 02:21:59;;;;;;;;;41.80;34.60;;;;;9.61;68.94;102882.63;2096086;28;47727;-67
2022/01/17 02:23:04;;;;;;;;;34.75;31.25;;;;;9.60;68.83;102879.09;2091723;28;47731;-70
2022/01/17 02:24:04;;;;;;;;;33.80;29.20;;;;;9.61;68.84;102879.97;2092614;28;47280;-69
2022/01/17 02:25:05;;;;;;;;;35.50;32.50;;;;;9.61;69.21;102879.97;2095080;28;47062;-69
2022/01/17 02:26:06;;;;;;;;;35.60;30.60;;;;;9.61;68.89;102872.03;2092834;28;47280;-69
2022/01/17 02:27:07;;;;;;;;;35.00;30.75;;;;;9.62;68.97;102873.81;2089827;28;47309;-68
2022/01/17 02:28:07;;;;;;;;;32.25;31.75;;;;;9.62;68.82;102874.69;2095906;28;47573;-70
2022/01/17 02:29:08;;;;;;;;;41.00;33.25;;;;;9.63;68.60;102868.53;2096784;28;47256;-70
2022/01/17 02:30:10;;;;;;;;;35.00;31.25;;;;;9.64;68.97;102872.94;2095835;28;47285;-68
2022/01/17 02:31:11;;;;;;;;;38.00;32.20;;;;;9.64;68.95;102872.94;2096164;28;47123;-70
2022/01/17 02:32:11;;;;;;;;;31.50;31.50;;;;;9.65;69.06;102873.84;2095213;28;47605;-71
2022/01/17 02:33:12;;;;;;;;;36.00;31.50;;;;;9.65;69.05;102872.09;2096666;28;47548;-70
2022/01/17 02:34:13;;;;;;;;;32.25;31.50;;;;;9.65;68.89;102871.19;2095136;28;47588;-69
2022/01/17 02:35:22;;;;;;;;;39.00;31.80;;;;;9.65;68.78;102864.13;2089246;28;47182;-69
2022/01/17 02:36:22;;;;;;;;;39.80;33.40;;;;;9.64;68.93;102867.66;2095711;28;45421;-71
2022/01/17 02:37:23;;;;;;;;;36.75;34.00;;;;;9.66;68.69;102859.75;2096807;28;47471;-71
2022/01/17 02:38:24;;;;;;;;;34.40;32.80;;;;;9.66;68.86;102863.28;2093940;28;47987;-68
2022/01/17 02:39:24;;;;;;;;;40.75;35.00;;;;;9.66;68.85;102870.34;2090895;28;47588;-69
2022/01/17 02:40:25;;;;;;;;;35.25;32.50;;;;;9.66;68.96;102865.06;2095984;28;47250;-70
2022/01/17 02:41:30;;;;;;;;;37.75;33.00;;;;;9.65;68.93;102864.13;2096917;28;46987;-70
2022/01/17 02:42:31;;;;;;;;;30.40;29.40;;;;;9.67;69.09;102866.84;2096381;28;47493;-71
2022/01/17 02:43:32;;;;;;;;;26.50;23.75;;;;;9.66;68.85;102871.25;2096200;28;47737;-70
2022/01/17 02:44:33;;;;;;;;;36.80;31.80;;;;;9.66;68.88;102870.34;2095221;28;47819;-71
2022/01/17 02:47:00;;;;;;;;;37.40;34.40;;;;;9.65;68.85;102864.13;2070482;28;47881;-71
2022/01/17 02:48:04;;;;;;;;;40.00;33.60;;;;;9.65;68.86;102866.78;2093783;28;47443;-66
2022/01/17 02:49:06;;;;;;;;;38.80;34.00;;;;;9.66;68.73;102857.09;2092309;28;48027;-68
2022/01/17 02:50:07;;;;;;;;;30.80;28.60;;;;;9.66;68.93;102858.00;2095842;28;47360;-70
2022/01/17 02:51:08;;;;;;;;;34.50;32.00;;;;;9.66;68.87;102859.75;2097095;28;47699;-69
2022/01/17 02:52:08;;;;;;;;;33.20;29.00;;;;;9.65;68.63;102860.59;2095429;28;47586;-71
2022/01/17 02:53:10;;;;;;;;;39.75;34.25;;;;;9.65;68.68;102864.13;2095788;28;47160;-71
2022/01/17 02:54:10;;;;;;;;;36.80;34.00;;;;;9.63;69.17;102860.56;2092266;28;46206;-68
2022/01/17 02:55:11;;;;;;;;;34.00;31.50;;;;;9.65;69.11;102865.88;2096764;28;47782;-70
2022/01/17 02:56:11;;;;;;;;;33.20;31.20;;;;;9.64;68.68;102859.69;2095046;28;47810;-70
2022/01/17 02:57:12;;;;;;;;;30.50;29.50;;;;;9.64;68.93;102867.66;2091736;28;47689;-71
2022/01/17 02:58:14;;;;;;;;;36.50;32.25;;;;;9.65;69.03;102865.88;2094765;28;48224;-71
2022/01/17 02:59:14;;;;;;;;;33.40;32.80;;;;;9.65;69.12;102871.19;2096176;28;47320;-69
2022/01/17 03:00:15;;;;;;;;;35.00;32.75;;;;;9.66;68.92;102870.34;2095433;28;45193;-71
2022/01/17 03:01:19;;;;;;;;;37.00;33.00;;;;;9.65;68.61;102869.44;2097634;28;47372;-69
2022/01/17 03:02:19;;;;;;;;;36.00;34.00;;;;;9.66;68.82;102870.34;2094912;28;48223;-69
2022/01/17 03:03:21;;;;;;;;;33.75;31.50;;;;;9.66;68.91;102871.25;2089492;28;47423;-69
2022/01/17 03:04:22;;;;;;;;;37.80;35.00;;;;;9.67;68.81;102877.44;2093609;28;47560;-70
2022/01/17 03:05:23;;;;;;;;;34.50;32.50;;;;;9.67;68.71;102872.13;2097697;28;48379;-70
2022/01/17 03:06:24;;;;;;;;;36.25;32.75;;;;;9.68;69.05;102871.28;2093524;28;47608;-70
2022/01/17 03:07:24;;;;;;;;;34.60;30.20;;;;;9.67;69.07;102878.34;2089831;28;47489;-70
2022/01/17 03:08:28;;;;;;;;;29.75;28.00;;;;;9.68;68.72;102874.81;2093089;28;47914;-72
2022/01/17 03:09:36;;;;;;;;;39.40;34.40;;;;;9.68;68.67;102877.47;2094529;28;45186;-65
2022/01/17 03:10:39;;;;;;;;;33.60;30.20;;;;;9.69;68.99;102873.06;2094852;28;47472;-68
2022/01/17 03:11:40;;;;;;;;;35.40;32.80;;;;;9.69;69.09;102881.00;2095966;28;47338;-70
2022/01/17 03:12:40;;;;;;;;;30.75;29.25;;;;;9.69;68.73;102881.00;2095811;28;47161;-67
2022/01/17 03:13:41;;;;;;;;;32.50;31.75;;;;;9.69;68.84;102881.91;2086817;28;47166;-69
2022/01/17 03:14:41;;;;;;;;;37.80;33.60;;;;;9.68;68.79;102882.75;2087239;28;47426;-70
2022/01/17 03:15:44;;;;;;;;;36.25;33.00;;;;;9.69;68.81;102881.00;2095789;28;47119;-68
2022/01/17 03:16:47;;;;;;;;;34.40;28.60;;;;;9.68;68.69;102888.06;2089054;28;46393;-69
2022/01/17 03:17:48;;;;;;;;;34.80;32.00;;;;;9.69;68.97;102887.19;2094355;28;47892;-69
2022/01/17 03:18:50;;;;;;;;;35.00;31.50;;;;;9.69;68.88;102886.31;2096386;28;47583;-68
2022/01/17 03:19:50;;;;;;;;;35.40;33.00;;;;;9.68;68.76;102884.53;2095653;28;47239;-70
2022/01/17 03:20:51;;;;;;;;;34.00;32.00;;;;;9.69;68.79;102884.53;2096320;28;47130;-71
2022/01/17 03:21:51;;;;;;;;;35.75;33.25;;;;;9.69;68.83;102892.50;2095793;28;47954;-70
2022/01/17 03:22:52;;;;;;;;;32.50;30.50;;;;;9.69;68.94;102896.91;2092206;28;47691;-70
2022/01/17 03:23:53;;;;;;;;;35.75;34.75;;;;;9.70;69.03;102896.94;2090411;28;47132;-69
2022/01/17 03:24:53;;;;;;;;;36.60;32.40;;;;;9.70;68.62;102893.38;2095207;28;47965;-69
2022/01/17 03:25:55;;;;;;;;;36.50;33.25;;;;;9.70;68.87;102894.28;2090750;28;47273;-70
2022/01/17 03:26:56;;;;;;;;;36.20;33.80;;;;;9.70;68.71;102888.97;2096336;28;47559;-69
2022/01/17 03:27:56;;;;;;;;;38.75;32.50;;;;;9.71;68.69;102897.81;2095703;28;48150;-69
2022/01/17 03:29:02;;;;;;;;;38.50;32.00;;;;;9.71;69.09;102906.66;2095924;28;47096;-65
2022/01/17 03:30:04;;;;;;;;;42.60;34.60;;;;;9.71;68.86;102896.06;2094924;28;46386;-69
2022/01/17 03:31:09;;;;;;;;;35.00;32.60;;;;;9.71;68.76;102900.47;2096312;28;47726;-70
2022/01/17 03:32:10;;;;;;;;;37.20;31.40;;;;;9.71;68.96;102900.47;2095191;28;47609;-70
2022/01/17 03:33:12;;;;;;;;;37.25;34.25;;;;;9.71;68.81;102898.72;2096180;28;47437;-68
2022/01/17 03:34:13;;;;;;;;;35.00;32.20;;;;;9.72;68.68;102904.91;2091749;28;47309;-71
2022/01/17 03:35:14;;;;;;;;;36.00;33.25;;;;;9.72;68.63;102905.81;2093225;28;47195;-68
2022/01/17 03:36:15;;;;;;;;;32.60;30.20;;;;;9.72;68.68;102911.09;2091526;28;47387;-68
2022/01/17 03:37:15;;;;;;;;;34.25;33.00;;;;;9.73;68.64;102910.22;2086845;28;47030;-71
2022/01/17 03:38:21;;;;;;;;;33.00;31.50;;;;;9.72;68.34;102911.09;2087821;28;47349;-71
2022/01/17 03:39:21;;;;;;;;;32.80;31.20;;;;;9.73;68.68;102909.34;2086987;28;47576;-67
2022/01/17 03:40:21;;;;;;;;;35.75;33.25;;;;;9.74;68.73;102906.72;2092850;28;47212;-68
2022/01/17 03:41:23;;;;;;;;;38.50;33.50;;;;;9.75;68.46;102910.25;2095236;28;47789;-69
2022/01/17 03:42:24;;;;;;;;;33.60;31.00;;;;;9.74;68.83;102906.72;2094257;28;45250;-72
2022/01/17 03:43:25;;;;;;;;;40.50;35.50;;;;;9.74;68.61;102901.41;2095809;28;47365;-68
2022/01/17 03:44:26;;;;;;;;;35.00;31.40;;;;;9.74;68.42;102906.72;2093948;28;48324;-71
2022/01/17 03:45:26;;;;;;;;;31.00;28.00;;;;;9.74;68.48;102905.81;2096940;28;48285;-67
2022/01/17 03:46:27;;;;;;;;;38.50;33.75;;;;;9.72;68.52;102905.81;2092243;28;47673;-66
2022/01/17 03:47:27;;;;;;;;;33.75;32.25;;;;;9.72;68.75;102908.44;2092859;28;46362;-67
2022/01/17 03:48:28;;;;;;;;;39.25;33.75;;;;;9.72;68.59;102907.56;2094136;28;48219;-67
2022/01/17 03:49:29;;;;;;;;;33.20;31.40;;;;;9.72;68.55;102903.16;2095314;28;47997;-70
2022/01/17 03:50:29;;;;;;;;;36.25;31.50;;;;;9.71;68.50;102909.31;2094109;28;47313;-64
2022/01/17 03:51:30;;;;;;;;;36.75;34.75;;;;;9.72;68.55;102921.72;2095589;28;47134;-63
2022/01/17 03:52:30;;;;;;;;;33.00;31.75;;;;;9.71;68.63;102917.28;2094906;28;45382;-68
2022/01/17 03:53:31;;;;;;;;;33.50;31.00;;;;;9.72;68.37;102920.81;2096298;28;47307;-65
2022/01/17 03:54:32;;;;;;;;;31.00;29.40;;;;;9.72;68.57;102920.81;2091891;28;47274;-69
2022/01/17 03:55:34;;;;;;;;;37.00;34.00;;;;;9.72;68.57;102924.38;2095793;28;45233;-64
2022/01/17 03:56:35;;;;;;;;;32.80;32.20;;;;;9.74;68.51;102924.38;2093126;28;47584;-70
2022/01/17 03:57:35;;;;;;;;;35.25;33.75;;;;;9.72;68.51;102921.72;2093089;28;47640;-68
2022/01/17 03:58:35;;;;;;;;;38.00;34.00;;;;;9.72;68.73;102927.00;2095829;28;47356;-70
2022/01/17 03:59:36;;;;;;;;;36.00;31.75;;;;;9.72;68.47;102929.66;2095382;28;48245;-69
2022/01/17 04:00:43;;;;;;;;;36.25;32.50;;;;;9.72;68.45;102934.97;2095285;28;47070;-69
2022/01/17 04:01:44;;;;;;;;;36.60;35.00;;;;;9.72;68.34;102929.66;2095109;28;47756;-70
2022/01/17 04:02:45;;;;;;;;;31.00;29.25;;;;;9.72;68.46;102932.31;2096016;28;47484;-69
2022/01/17 04:03:46;;;;;;;;;38.80;35.00;;;;;9.71;68.57;102932.28;2095242;28;48040;-70
2022/01/17 04:04:47;;;;;;;;;37.60;32.80;;;;;9.71;68.43;102935.84;2095311;28;47259;-70
2022/01/17 04:05:48;;;;;;;;;32.25;31.00;;;;;9.71;68.52;102934.94;2094202;28;47241;-70
2022/01/17 04:06:48;;;;;;;;;42.40;36.60;;;;;9.71;68.57;102932.28;2091523;28;47991;-69
2022/01/17 04:07:49;;;;;;;;;36.50;33.00;;;;;9.71;68.40;102932.28;2091287;28;47546;-71
2022/01/17 04:08:50;;;;;;;;;39.75;35.00;;;;;9.69;68.60;102934.91;2094726;28;47359;-70
2022/01/17 04:09:50;;;;;;;;;41.00;35.75;;;;;9.70;68.56;102934.06;2095203;28;47193;-70
2022/01/17 04:10:50;;;;;;;;;43.00;37.00;;;;;9.70;68.48;102934.06;2096078;28;46584;-70
2022/01/17 04:11:51;;;;;;;;;40.00;34.25;;;;;9.71;68.57;102934.94;2095744;28;45630;-69
2022/01/17 04:12:53;;;;;;;;;40.25;35.75;;;;;9.71;68.47;102934.94;2095198;28;47332;-69
2022/01/17 04:13:54;;;;;;;;;42.80;37.00;;;;;9.69;68.48;102937.56;2094082;28;47719;-69
2022/01/17 04:14:56;;;;;;;;;37.50;34.75;;;;;9.69;68.45;102936.69;2093049;28;47230;-69
2022/01/17 04:15:56;;;;;;;;;33.40;30.00;;;;;9.69;68.46;102937.56;2095309;28;45727;-68
2022/01/17 04:16:57;;;;;;;;;33.75;32.50;;;;;9.66;68.47;102940.19;2095795;28;46307;-71
2022/01/17 04:17:57;;;;;;;;;31.50;29.25;;;;;9.69;68.37;102941.97;2095068;28;47288;-71
2022/01/17 04:18:58;;;;;;;;;41.50;37.50;;;;;9.70;68.55;102946.41;2085874;28;47284;-72
2022/01/17 04:20:06;;;;;;;;;37.00;34.00;;;;;9.69;68.63;102945.53;2085022;28;48064;-68
2022/01/17 04:21:06;;;;;;;;;41.00;35.60;;;;;9.69;68.45;102942.88;2091558;28;46805;-69
2022/01/17 04:22:09;;;;;;;;;37.75;34.50;;;;;9.69;68.43;102949.94;2094443;28;47391;-71
2022/01/17 04:23:11;;;;;;;;;37.40;34.00;;;;;9.69;68.27;102950.81;2088874;28;46091;-70
2022/01/17 04:24:12;;;;;;;;;42.40;36.00;;;;;9.68;68.29;102948.16;2091151;28;47353;-71
2022/01/17 04:25:12;;;;;;;;;43.60;34.60;;;;;9.68;68.50;102954.34;2092317;28;46889;-71
2022/01/17 04:26:14;;;;;;;;;22.50;18.25;;;;;9.69;68.50;102957.88;2091721;28;47490;-67
2022/01/17 04:27:14;;;;;;;;;33.00;32.00;;;;;9.69;68.34;102953.47;2096549;28;47237;-70
2022/01/17 04:28:15;;;;;;;;;42.00;37.50;;;;;9.69;68.54;102950.81;2092894;28;47729;-70
2022/01/17 04:29:15;;;;;;;;;37.75;35.75;;;;;9.69;68.37;102948.19;2096122;28;47539;-71
2022/01/17 04:30:17;;;;;;;;;42.00;34.00;;;;;9.69;68.41;102945.53;2094398;28;47998;-67
2022/01/17 04:31:17;;;;;;;;;42.40;36.80;;;;;9.69;68.55;102942.88;2095294;28;47343;-68
2022/01/17 04:32:17;;;;;;;;;43.75;36.00;;;;;9.70;68.24;102938.47;2093282;28;46326;-70
2022/01/17 04:33:18;;;;;;;;;35.25;34.25;;;;;9.70;68.48;102936.69;2094816;28;47297;-71
2022/01/17 04:34:18;;;;;;;;;34.00;32.25;;;;;9.70;68.40;102930.50;2089346;28;47572;-70
2022/01/17 04:35:21;;;;;;;;;44.25;39.00;;;;;9.69;68.35;102932.28;2084186;28;47413;-70
2022/01/17 04:36:21;;;;;;;;;40.20;35.60;;;;;9.69;68.37;102931.38;2088400;28;47433;-72
2022/01/17 04:37:22;;;;;;;;;42.25;35.25;;;;;9.70;68.20;102935.81;2089521;28;48523;-71
2022/01/17 04:38:22;;;;;;;;;40.75;36.00;;;;;9.68;68.32;102930.50;2090839;28;47316;-70
2022/01/17 04:39:23;;;;;;;;;38.25;34.75;;;;;9.70;68.35;102935.81;2091542;28;47314;-69
2022/01/17 04:40:24;;;;;;;;;43.75;38.50;;;;;9.71;68.19;102934.94;2093004;28;47259;-71
2022/01/17 04:41:35;;;;;;;;;38.25;34.00;;;;;9.70;68.22;102938.47;2094762;28;47562;-68
2022/01/17 04:42:43;;;;;;;;;37.80;31.60;;;;;9.70;68.44;102934.06;2094114;28;47488;-69
2022/01/17 04:43:56;;;;;;;;;47.60;38.60;;;;;9.70;68.21;102936.69;2094232;28;45637;-69
2022/01/17 04:45:10;;;;;;;;;48.00;39.40;;;;;9.71;68.26;102937.59;2087235;28;47677;-71
2022/01/17 04:46:11;;;;;;;;;42.80;37.80;;;;;9.70;68.49;102933.16;2087268;28;48025;-69
2022/01/17 04:47:13;;;;;;;;;45.00;39.40;;;;;9.72;68.11;102942.91;2090832;28;45323;-68
2022/01/17 04:48:13;;;;;;;;;50.40;41.20;;;;;9.72;68.43;102940.28;2092740;28;47300;-68
2022/01/17 04:49:14;;;;;;;;;47.00;38.50;;;;;9.72;68.12;102947.34;2096091;28;45284;-68
2022/01/17 04:50:17;;;;;;;;;44.25;38.75;;;;;9.73;68.15;102941.16;2094429;28;46615;-68
2022/01/17 04:51:18;;;;;;;;;45.20;38.60;;;;;9.72;68.21;102936.72;2095769;28;47334;-69
2022/01/17 04:52:19;;;;;;;;;45.75;38.50;;;;;9.73;68.23;102944.69;2090788;28;47491;-69
2022/01/17 04:53:21;;;;;;;;;45.75;36.25;;;;;9.74;68.07;102949.13;2096353;28;47609;-70
2022/01/17 04:54:39;;;;;;;;;46.40;38.40;;;;;9.74;68.06;102951.78;2094853;28;47173;-68
2022/01/17 04:55:40;;;;;;;;;49.20;41.20;;;;;9.76;67.99;102953.56;2089083;28;47306;-70
2022/01/17 04:56:40;;;;;;;;;48.25;38.50;;;;;9.76;67.86;102953.56;2096438;28;46404;-69
2022/01/17 04:57:43;;;;;;;;;45.25;39.00;;;;;9.76;68.02;102956.22;2094972;28;46215;-69